Time;durP1;ratioP1;P1;durP2;ratioP2;P2;SDS_P1;SDS_P2;PMS_P1;PMS_P2;Temp;Humidity;BMP_temperature;BMP_pressure;BME280_temperature;BME280_humidity;BME280_pressure;Samples;Min_cycle;Max_cycle;Signal;HPM_P1;HPM_P2
2023/10/13 00:01:48;;;;;;;9.67;4.20;;;;;;;18.81;58.87;156197.06;5032095;28;20446;-80
2023/10/13 00:04:15;;;;;;;10.20;4.63;;;;;;;18.78;59.34;156189.22;5068869;28;20504;-80
2023/10/13 00:06:43;;;;;;;6.70;4.43;;;;;;;18.81;59.08;156197.06;5046781;28;20467;-79
2023/10/13 00:09:14;;;;;;;5.67;3.30;;;;;;;18.82;59.49;156199.69;5050254;28;20450;-79
2023/10/13 00:11:44;;;;;;;7.00;4.07;;;;;;;18.73;59.11;156177.53;5061752;28;20458;-79
2023/10/13 00:14:14;;;;;;;7.60;4.20;;;;;;;18.71;59.69;156171.00;5039410;28;20482;-79
2023/10/13 00:16:41;;;;;;;4.30;3.83;;;;;;;18.66;59.13;156158.00;5060871;28;20490;-79
2023/10/13 00:19:13;;;;;;;4.63;3.57;;;;;;;18.62;59.52;156147.53;5044596;28;20843;-79
2023/10/13 00:21:42;;;;;;;10.00;4.43;;;;;;;18.58;59.59;156137.13;5033429;28;20454;-79
2023/10/13 00:24:12;;;;;;;5.53;4.00;;;;;;;18.56;59.47;156131.94;5054513;28;20558;-79
2023/10/13 00:26:42;;;;;;;5.00;3.83;;;;;;;18.52;59.46;156121.50;5065957;28;20435;-80
2023/10/13 00:29:15;;;;;;;6.20;3.90;;;;;;;18.45;59.24;156104.53;5046296;28;20508;-79
2023/10/13 00:31:43;;;;;;;6.37;3.87;;;;;;;18.42;59.80;156095.41;5032853;28;20445;-79
2023/10/13 00:34:15;;;;;;;4.80;3.90;;;;;;;18.38;59.91;156084.97;5059084;28;20484;-80
2023/10/13 00:36:48;;;;;;;5.00;4.40;;;;;;;18.37;60.18;156082.38;5051354;28;20467;-79
2023/10/13 00:39:15;;;;;;;4.90;3.93;;;;;;;18.32;59.37;156069.38;5046208;28;20800;-79
2023/10/13 00:41:51;;;;;;;5.40;3.80;;;;;;;18.30;59.70;156064.13;5035511;28;20490;-79
2023/10/13 00:44:18;;;;;;;6.17;4.50;;;;;;;18.25;59.62;156053.72;5039425;28;20932;-80
2023/10/13 00:46:45;;;;;;;5.53;3.87;;;;;;;18.21;59.89;156043.28;5044387;28;20494;-80
2023/10/13 00:49:15;;;;;;;9.13;4.57;;;;;;;18.17;60.06;156032.88;5048975;28;20455;-79
2023/10/13 00:51:47;;;;;;;6.10;3.83;;;;;;;18.13;60.37;156022.50;5059619;28;20465;-79
2023/10/13 00:54:13;;;;;;;6.90;3.70;;;;;;;18.11;60.40;156017.25;5037304;28;20675;-79
2023/10/13 00:56:46;;;;;;;5.50;4.27;;;;;;;18.09;60.29;156010.72;5045004;28;20525;-79
2023/10/13 00:59:14;;;;;;;5.53;3.53;;;;;;;18.06;59.95;156004.22;5048436;28;20499;-79
2023/10/13 01:01:42;;;;;;;4.80;3.93;;;;;;;18.06;59.97;156002.91;5060055;28;20484;-80
2023/10/13 01:04:08;;;;;;;7.37;4.53;;;;;;;18.03;60.83;155995.16;5049882;28;20522;-79
2023/10/13 01:06:37;;;;;;;6.40;3.83;;;;;;;17.99;60.33;155984.69;5027021;28;20456;-79
2023/10/13 01:09:11;;;;;;;5.10;3.63;;;;;;;17.97;60.48;155979.50;5051294;28;20883;-79
2023/10/13 01:11:38;;;;;;;4.13;3.73;;;;;;;17.94;60.95;155973.00;5026307;28;20467;-80
2023/10/13 01:14:06;;;;;;;5.77;3.97;;;;;;;17.98;60.48;155983.38;5045250;28;20447;-79
2023/10/13 01:16:32;;;;;;;5.23;3.83;;;;;;;17.96;60.03;155978.19;5045544;28;21068;-79
2023/10/13 01:18:59;;;;;;;5.57;3.83;;;;;;;17.91;60.34;155965.16;5047971;28;20479;-79
2023/10/13 01:21:28;;;;;;;5.60;3.80;;;;;;;17.90;60.56;155962.56;5047413;28;20451;-79
2023/10/13 01:24:13;;;;;;;7.97;4.00;;;;;;;17.88;60.17;155957.34;5032410;28;20910;-79
2023/10/13 01:26:42;;;;;;;7.20;4.27;;;;;;;17.87;60.10;155953.47;5063939;28;20874;-79
2023/10/13 01:29:12;;;;;;;4.60;3.50;;;;;;;17.84;60.61;155946.97;5031143;28;20458;-79
2023/10/13 01:31:45;;;;;;;5.90;4.10;;;;;;;17.84;60.47;155946.97;5038177;28;20802;-79
2023/10/13 01:34:12;;;;;;;5.83;3.83;;;;;;;17.81;60.40;155939.16;5053420;28;20454;-79
2023/10/13 01:36:40;;;;;;;6.57;3.80;;;;;;;17.79;60.49;155932.63;5051508;28;20489;-79
2023/10/13 01:39:10;;;;;;;5.27;3.93;;;;;;;17.78;60.66;155930.00;5047900;28;20474;-79
2023/10/13 01:41:39;;;;;;;4.90;4.10;;;;;;;17.73;60.10;155918.31;5048420;28;20443;-80
2023/10/13 01:44:05;;;;;;;4.80;3.87;;;;;;;17.69;60.43;155907.88;5048515;28;20492;-79
2023/10/13 01:46:31;;;;;;;7.83;4.10;;;;;;;17.65;60.54;155897.47;5028179;28;20803;-79
2023/10/13 01:48:57;;;;;;;5.37;4.07;;;;;;;17.62;60.86;155889.66;5046610;28;20478;-79
2023/10/13 01:51:28;;;;;;;5.23;3.33;;;;;;;17.60;61.03;155885.78;5048483;28;20909;-79
2023/10/13 01:53:56;;;;;;;4.27;3.70;;;;;;;17.58;61.23;155879.22;5047084;28;20209;-79
2023/10/13 01:56:25;;;;;;;5.30;4.17;;;;;;;17.55;61.45;155871.47;5036246;28;20517;-79
2023/10/13 01:58:51;;;;;;;6.93;4.50;;;;;;;17.53;61.53;155866.22;5047578;28;20431;-79
2023/10/13 02:01:26;;;;;;;6.47;4.43;;;;;;;17.49;61.25;155857.09;5030951;28;20454;-79
2023/10/13 02:04:01;;;;;;;9.40;4.27;;;;;;;17.46;61.31;155849.25;5035598;28;20807;-79
2023/10/13 02:06:32;;;;;;;6.60;3.80;;;;;;;17.46;61.64;155847.94;5042895;28;20459;-80
2023/10/13 02:09:03;;;;;;;4.70;4.17;;;;;;;17.43;61.78;155841.44;5045279;28;20441;-80
2023/10/13 02:11:31;;;;;;;4.40;3.57;;;;;;;17.41;61.63;155834.94;5027382;28;20458;-79
2023/10/13 02:13:57;;;;;;;8.43;4.00;;;;;;;17.38;62.09;155827.13;5054983;28;20507;-79
2023/10/13 02:16:25;;;;;;;4.57;4.17;;;;;;;17.38;62.10;155828.44;5046245;28;20980;-79
2023/10/13 02:18:52;;;;;;;5.40;4.73;;;;;;;17.37;62.10;155824.50;5045404;28;20489;-79
2023/10/13 02:21:18;;;;;;;8.77;4.10;;;;;;;17.35;62.13;155820.63;5032236;28;20459;-80
2023/10/13 02:23:45;;;;;;;7.20;4.00;;;;;;;17.33;62.24;155814.13;5072073;28;20453;-79
2023/10/13 02:26:13;;;;;;;6.20;3.90;;;;;;;17.30;61.96;155806.28;5041461;28;20568;-79
2023/10/13 02:28:41;;;;;;;7.43;3.80;;;;;;;17.28;62.48;155801.09;5060598;28;20450;-79
2023/10/13 02:31:07;;;;;;;7.13;5.07;;;;;;;17.26;62.51;155795.91;5045279;28;20450;-79
2023/10/13 02:33:34;;;;;;;6.63;4.30;;;;;;;17.23;62.57;155788.09;5031003;28;20447;-79
2023/10/13 02:36:03;;;;;;;5.83;4.60;;;;;;;17.19;62.61;155778.97;5031238;28;20198;-79
2023/10/13 02:38:34;;;;;;;9.43;4.23;;;;;;;17.19;62.83;155777.66;5027745;28;20482;-79
2023/10/13 02:41:05;;;;;;;5.77;4.10;;;;;;;17.16;63.34;155771.16;5057675;28;20469;-79
2023/10/13 02:43:34;;;;;;;6.17;4.30;;;;;;;17.12;62.82;155759.47;5049210;28;20497;-79
2023/10/13 02:46:02;;;;;;;4.77;4.07;;;;;;;17.09;63.16;155752.94;5049124;28;20449;-79
2023/10/13 02:48:40;;;;;;;5.10;4.10;;;;;;;17.06;63.59;155745.13;5029906;28;20443;-79
2023/10/13 02:51:15;;;;;;;5.27;4.30;;;;;;;16.99;63.47;155728.25;5079776;28;20451;-79
2023/10/13 02:53:42;;;;;;;5.57;4.10;;;;;;;16.95;63.41;155717.81;5080566;28;20442;-79
2023/10/13 02:56:08;;;;;;;7.13;4.03;;;;;;;16.94;63.48;155715.19;5033000;28;20466;-79
2023/10/13 02:58:38;;;;;;;9.03;5.10;;;;;;;16.93;63.36;155712.63;5029146;28;20446;-79
2023/10/13 03:01:17;;;;;;;5.57;3.83;;;;;;;16.92;63.62;155708.69;5056357;28;20202;-79
2023/10/13 03:03:52;;;;;;;6.40;3.80;;;;;;;16.86;63.97;155694.41;5029916;28;20564;-79
2023/10/13 03:06:21;;;;;;;6.13;3.70;;;;;;;16.84;64.07;155689.19;5023789;28;20504;-79
2023/10/13 03:08:49;;;;;;;7.60;3.90;;;;;;;16.82;64.35;155684.00;5058186;28;20437;-79
2023/10/13 03:11:14;;;;;;;5.20;4.30;;;;;;;16.80;64.31;155678.78;5075676;28;20578;-79
2023/10/13 03:13:44;;;;;;;5.30;3.80;;;;;;;16.77;64.04;155669.66;5029739;28;20538;-79
2023/10/13 03:16:19;;;;;;;7.83;4.23;;;;;;;16.75;64.10;155665.78;5029938;28;20329;-79
2023/10/13 03:18:53;;;;;;;4.50;3.83;;;;;;;16.71;64.49;155655.34;5052322;28;20475;-79
2023/10/13 03:21:28;;;;;;;5.23;4.23;;;;;;;16.69;64.39;155648.84;5029215;28;20441;-79
2023/10/13 03:23:56;;;;;;;7.03;4.30;;;;;;;16.64;64.35;155637.16;5047229;28;20439;-79
2023/10/13 03:26:23;;;;;;;12.63;4.10;;;;;;;16.60;64.69;155626.72;5053803;28;20484;-79
2023/10/13 03:28:52;;;;;;;4.37;3.50;;;;;;;16.57;64.72;155617.66;5029848;28;20890;-80
2023/10/13 03:31:25;;;;;;;5.77;4.07;;;;;;;16.56;65.16;155615.03;5046476;28;20434;-79
2023/10/13 03:33:56;;;;;;;5.77;4.10;;;;;;;16.57;64.92;155617.66;5047627;28;20455;-79
2023/10/13 03:36:56;;;;;;;5.20;3.70;;;;;;;16.56;64.66;155616.34;5040784;28;20446;-79
2023/10/13 03:39:27;;;;;;;8.70;4.10;;;;;;;16.57;64.62;155617.66;5075546;28;21007;-79
2023/10/13 03:41:54;;;;;;;4.70;4.20;;;;;;;16.56;64.56;155616.34;5028572;28;20454;-79
2023/10/13 03:44:22;;;;;;;6.70;4.10;;;;;;;16.56;64.34;155616.34;5044081;28;20470;-79
2023/10/13 03:46:54;;;;;;;6.33;4.30;;;;;;;16.58;64.13;155620.22;5044601;28;20469;-79
2023/10/13 03:49:21;;;;;;;4.63;4.17;;;;;;;16.60;64.54;155626.72;5047982;28;20415;-79
2023/10/13 03:51:48;;;;;;;4.50;3.77;;;;;;;16.61;64.46;155629.34;5044866;28;20481;-79
2023/10/13 03:54:16;;;;;;;6.90;3.93;;;;;;;16.60;64.11;155625.47;5030316;28;20532;-79
2023/10/13 03:56:44;;;;;;;8.43;4.60;;;;;;;16.60;64.06;155625.47;5046286;28;20493;-79
2023/10/13 03:59:18;;;;;;;4.40;3.90;;;;;;;16.61;63.95;155629.34;5046271;28;20439;-79
2023/10/13 04:01:46;;;;;;;7.83;4.63;;;;;;;16.60;63.91;155626.72;5051008;28;20552;-79
2023/10/13 04:04:33;;;;;;;5.47;4.50;;;;;;;16.61;63.97;155629.34;5060788;28;20807;-79
2023/10/13 04:07:13;;;;;;;6.33;4.27;;;;;;;16.58;63.65;155620.22;5041632;28;20450;-79
2023/10/13 04:10:10;;;;;;;5.07;3.90;;;;;;;16.55;64.31;155613.72;5042587;28;21134;-79
2023/10/13 04:15:23;;;;;;;7.80;5.30;;;;;;;16.53;63.94;155608.53;5027666;28;20446;-79
2023/10/13 04:17:50;;;;;;;5.43;4.47;;;;;;;16.51;64.21;155603.28;5047960;28;20809;-79
2023/10/13 04:20:38;;;;;;;5.53;4.20;;;;;;;16.49;64.46;155598.09;5040874;28;20478;-79
2023/10/13 04:23:22;;;;;;;5.50;4.00;;;;;;;16.49;64.52;155598.09;5078997;28;20442;-80
2023/10/13 04:26:21;;;;;;;5.17;3.80;;;;;;;16.45;64.43;155587.66;5077017;28;20965;-79
2023/10/13 04:28:52;;;;;;;6.10;3.70;;;;;;;16.42;64.52;155579.88;5075769;28;20523;-80
2023/10/13 04:34:02;;;;;;;7.50;5.00;;;;;;;16.38;64.69;155570.78;5031475;28;20434;-79
2023/10/13 04:36:45;;;;;;;5.50;4.77;;;;;;;16.34;64.84;155560.34;5048761;28;20442;-79
2023/10/13 04:39:29;;;;;;;5.77;3.90;;;;;;;16.34;64.93;155560.34;5046307;28;20521;-79
2023/10/13 04:41:57;;;;;;;7.30;4.80;;;;;;;16.33;65.09;155556.47;5033219;28;20455;-80
2023/10/13 04:47:08;;;;;;;4.83;3.60;;;;;;;16.26;64.96;155538.25;5045263;28;20481;-79
2023/10/13 04:49:49;;;;;;;5.93;4.67;;;;;;;16.22;65.30;155527.84;5046181;28;20529;-79
2023/10/13 04:52:50;;;;;;;8.20;4.93;;;;;;;16.19;65.41;155520.03;5066029;28;20429;-79
2023/10/13 04:55:32;;;;;;;10.10;4.37;;;;;;;16.17;65.66;155514.88;5045145;28;21010;-79
2023/10/13 04:58:10;;;;;;;5.30;4.33;;;;;;;16.15;65.50;155510.94;5045025;28;20470;-79
2023/10/13 05:01:16;;;;;;;4.87;4.13;;;;;;;16.12;66.01;155501.88;5046086;28;20462;-79
2023/10/13 05:04:08;;;;;;;6.93;4.60;;;;;;;16.09;65.85;155495.38;5036571;28;20441;-80
2023/10/13 05:45:36;;;;;;;6.23;4.27;;;;;;;15.86;66.92;155434.25;5036963;28;20548;-81
2023/10/13 05:48:11;;;;;;;6.47;4.27;;;;;;;15.87;67.21;155436.81;5035994;28;20968;-80
2023/10/13 06:28:58;;;;;;;6.13;4.40;;;;;;;16.93;64.82;155711.31;5036685;28;20454;-79
2023/10/13 06:31:26;;;;;;;7.23;4.83;;;;;;;17.04;64.27;155739.94;5050308;28;20466;-80
2023/10/13 06:33:55;;;;;;;5.63;3.90;;;;;;;17.10;64.12;155754.25;5038323;28;20443;-79
2023/10/13 06:36:22;;;;;;;7.83;4.57;;;;;;;17.14;64.08;155764.66;5032761;28;20455;-79
2023/10/13 06:38:54;;;;;;;6.60;4.30;;;;;;;17.17;64.27;155772.47;5036985;28;20590;-80
2023/10/13 06:41:30;;;;;;;10.60;5.00;;;;;;;17.19;63.63;155777.66;5021002;28;20456;-79
2023/10/13 06:44:00;;;;;;;5.77;4.10;;;;;;;17.28;63.54;155801.09;5034530;28;20478;-80
2023/10/13 06:46:33;;;;;;;5.77;4.30;;;;;;;17.36;63.37;155821.94;5042503;28;20454;-79
2023/10/13 06:49:02;;;;;;;9.60;5.27;;;;;;;17.46;63.13;155849.25;5040529;28;20461;-80
2023/10/13 06:51:37;;;;;;;7.47;4.67;;;;;;;17.52;63.01;155864.91;5035042;28;20463;-80
2023/10/13 06:54:09;;;;;;;9.07;5.07;;;;;;;17.64;62.65;155894.84;5054124;28;20439;-80
2023/10/13 06:56:39;;;;;;;7.30;4.63;;;;;;;17.75;62.28;155923.50;5035664;28;21454;-80
2023/10/13 06:59:06;;;;;;;6.27;4.60;;;;;;;17.95;62.13;155975.56;5034895;28;20493;-79
2023/10/13 07:01:38;;;;;;;10.27;4.70;;;;;;;18.27;61.78;156056.34;5037503;28;20454;-79
2023/10/13 07:04:12;;;;;;;5.00;4.33;;;;;;;18.58;60.52;156137.13;5037780;28;20447;-79
2023/10/13 07:06:42;;;;;;;9.10;4.20;;;;;;;18.91;59.75;156223.09;5018437;28;20450;-80
2023/10/13 07:09:15;;;;;;;7.47;4.97;;;;;;;19.21;58.59;156301.31;5033999;28;20447;-79
2023/10/13 07:11:43;;;;;;;7.50;4.43;;;;;;;19.52;57.90;156380.84;5037225;28;20451;-79
2023/10/13 07:14:10;;;;;;;5.60;4.80;;;;;;;19.77;56.76;156444.75;5037523;28;20454;-80
2023/10/13 07:16:46;;;;;;;6.60;3.90;;;;;;;19.98;56.27;156500.81;5034054;28;20486;-79
2023/10/13 07:19:16;;;;;;;7.73;4.80;;;;;;;20.35;55.41;156596.06;5034864;28;20479;-80
2023/10/13 07:21:45;;;;;;;5.17;4.67;;;;;;;20.77;54.61;156704.34;5034193;28;20451;-79
2023/10/13 07:24:12;;;;;;;6.97;4.63;;;;;;;21.12;53.52;156794.44;5034737;28;20968;-79
2023/10/13 07:26:42;;;;;;;9.17;4.83;;;;;;;21.42;52.70;156872.72;5067233;28;20458;-80
2023/10/13 07:29:10;;;;;;;10.37;4.67;;;;;;;21.70;52.00;156945.84;5031798;28;20450;-79
2023/10/13 07:31:39;;;;;;;6.90;4.63;;;;;;;22.00;51.01;157021.63;5031618;28;20454;-79
2023/10/13 07:34:12;;;;;;;7.27;4.43;;;;;;;22.21;50.44;157076.47;5037703;28;20555;-80
2023/10/13 07:36:42;;;;;;;7.73;4.77;;;;;;;22.52;49.59;157156.13;5034372;28;20820;-79
2023/10/13 07:39:21;;;;;;;5.97;4.90;;;;;;;22.71;48.76;157205.84;5034371;28;20471;-80
2023/10/13 07:41:55;;;;;;;5.87;4.00;;;;;;;22.93;49.08;157263.28;5031794;28;20938;-81
2023/10/13 07:44:24;;;;;;;6.03;4.40;;;;;;;23.17;48.12;157326.00;5036994;28;20971;-80
2023/10/13 07:46:58;;;;;;;6.83;4.87;;;;;;;23.37;47.48;157377.06;5034678;28;20462;-80
2023/10/13 07:49:31;;;;;;;7.87;5.20;;;;;;;23.49;47.53;157408.41;5035299;28;20596;-80
2023/10/13 07:52:00;;;;;;;6.07;4.97;;;;;;;23.53;47.10;157418.88;5047025;28;20473;-80
2023/10/13 07:54:27;;;;;;;7.83;5.50;;;;;;;23.55;46.98;157424.09;5036810;28;20803;-80
2023/10/13 07:56:54;;;;;;;10.43;5.90;;;;;;;23.38;46.60;157379.63;5040900;28;20450;-80
2023/10/13 07:59:22;;;;;;;8.47;4.90;;;;;;;22.96;47.78;157272.44;5015730;28;20507;-80
2023/10/13 08:02:11;;;;;;;7.20;4.83;;;;;;;22.58;48.40;157171.81;5032734;28;20468;-80
2023/10/13 08:04:36;;;;;;;5.73;4.60;;;;;;;22.27;49.00;157093.44;5032801;28;20450;-80
2023/10/13 08:07:12;;;;;;;7.57;4.60;;;;;;;22.09;49.66;157045.09;5036090;28;20874;-80
2023/10/13 08:09:41;;;;;;;6.00;4.50;;;;;;;21.93;49.64;157003.31;5034400;28;20974;-80
2023/10/13 08:12:11;;;;;;;5.70;3.80;;;;;;;21.85;49.53;156985.00;5034835;28;20628;-81
2023/10/13 08:14:40;;;;;;;5.50;4.20;;;;;;;21.79;50.13;156969.31;5038295;28;20529;-80
2023/10/13 08:17:12;;;;;;;6.07;4.33;;;;;;;21.74;50.45;156956.25;5037573;28;20455;-81
2023/10/13 08:19:59;;;;;;;7.77;4.07;;;;;;;21.63;49.98;156926.28;5036077;28;20578;-80
2023/10/13 08:22:26;;;;;;;5.67;4.47;;;;;;;21.55;50.61;156906.66;5054084;28;21074;-80
2023/10/13 08:24:59;;;;;;;5.77;4.70;;;;;;;21.54;49.92;156904.06;5037003;28;21040;-81
2023/10/13 08:27:34;;;;;;;7.90;4.40;;;;;;;21.55;49.88;156906.66;5020379;28;20930;-80
2023/10/13 08:32:54;;;;;;;9.60;4.43;;;;;;;21.59;49.71;156917.13;5037453;28;20554;-80
2023/10/13 08:35:54;;;;;;;7.57;4.43;;;;;;;21.62;49.74;156924.97;5038901;28;20450;-80
2023/10/13 08:38:28;;;;;;;5.10;3.77;;;;;;;21.66;49.19;156934.06;5035769;28;20486;-81
2023/10/13 08:43:50;;;;;;;9.40;3.90;;;;;;;21.88;49.11;156991.56;5015703;28;20455;-80
2023/10/13 08:46:28;;;;;;;5.53;4.17;;;;;;;21.96;47.65;157011.16;5019957;28;20503;-81
2023/10/13 08:49:04;;;;;;;5.57;4.10;;;;;;;21.98;47.63;157016.38;5018451;28;20539;-82
2023/10/13 08:51:48;;;;;;;6.87;4.30;;;;;;;21.99;47.75;157019.00;5017708;28;20444;-81
2023/10/13 08:54:34;;;;;;;10.47;4.70;;;;;;;22.08;47.65;157042.53;5017668;28;20464;-81
2023/10/13 08:57:19;;;;;;;6.77;3.50;;;;;;;22.15;47.78;157062.09;5018102;28;21024;-81
2023/10/13 08:59:55;;;;;;;6.27;4.17;;;;;;;22.19;47.64;157072.53;5018394;28;20494;-80
2023/10/13 09:02:56;;;;;;;6.30;4.00;;;;;;;22.23;47.60;157081.69;5017528;28;20447;-81
2023/10/13 09:05:41;;;;;;;6.20;3.83;;;;;;;22.30;47.01;157101.25;5034464;28;20444;-81
2023/10/13 09:08:08;;;;;;;8.30;3.97;;;;;;;22.35;47.16;157114.31;5017221;28;20494;-81
2023/10/13 09:10:44;;;;;;;6.27;4.40;;;;;;;22.38;47.11;157122.16;5017043;28;20453;-81
2023/10/13 09:13:18;;;;;;;7.37;3.73;;;;;;;22.38;48.12;157122.16;5015478;28;20447;-81
2023/10/13 09:16:00;;;;;;;6.17;3.90;;;;;;;22.36;47.67;157115.63;5016419;28;20454;-81
2023/10/13 09:21:29;;;;;;;8.77;3.83;;;;;;;22.51;47.77;157154.81;5032540;28;20460;-81
2023/10/13 09:26:38;;;;;;;6.83;3.40;;;;;;;22.55;43.96;157165.28;5029962;28;22465;-81
2023/10/13 09:29:14;;;;;;;9.03;3.70;;;;;;;22.58;45.00;157173.13;5030096;28;20448;-81
2023/10/13 09:31:44;;;;;;;6.20;3.80;;;;;;;22.54;44.34;157162.66;5016078;28;20444;-81
2023/10/13 09:34:10;;;;;;;7.33;3.90;;;;;;;22.50;44.55;157152.22;5014582;28;20463;-81
2023/10/13 09:36:36;;;;;;;5.77;3.50;;;;;;;22.57;44.01;157170.50;5016237;28;20447;-80
2023/10/13 09:39:12;;;;;;;6.00;3.40;;;;;;;22.65;43.15;157190.13;5015794;28;20222;-81
2023/10/13 09:41:41;;;;;;;7.63;3.40;;;;;;;22.72;43.13;157209.72;5016171;28;20447;-81
2023/10/13 09:44:08;;;;;;;7.43;3.40;;;;;;;22.83;42.60;157237.16;4999716;28;20508;-81
2023/10/13 09:46:41;;;;;;;4.33;3.00;;;;;;;22.90;41.76;157256.75;5014891;28;20456;-81
2023/10/13 09:49:33;;;;;;;5.93;3.17;;;;;;;22.91;41.51;157258.06;5032329;28;20468;-80
2023/10/13 09:52:02;;;;;;;9.60;3.73;;;;;;;22.89;42.23;157254.16;5017087;28;20989;-80
2023/10/13 09:54:36;;;;;;;5.87;3.70;;;;;;;22.84;42.64;157241.13;5016463;28;20448;-80
2023/10/13 09:57:10;;;;;;;5.07;3.37;;;;;;;22.84;42.55;157239.78;5015363;28;20470;-81
2023/10/13 09:59:49;;;;;;;7.90;3.30;;;;;;;22.87;42.94;157248.97;5033148;28;20483;-80
2023/10/13 10:02:20;;;;;;;8.43;4.03;;;;;;;22.92;42.99;157260.69;5016060;28;20534;-81
2023/10/13 10:04:51;;;;;;;5.93;3.20;;;;;;;22.97;42.84;157275.09;5019394;28;20525;-80
2023/10/13 10:07:27;;;;;;;6.33;3.27;;;;;;;23.01;41.42;157285.50;5031443;28;20521;-80
2023/10/13 10:09:58;;;;;;;6.43;3.90;;;;;;;23.04;42.35;157293.34;5032134;28;20530;-80
2023/10/13 10:12:36;;;;;;;5.63;3.37;;;;;;;23.00;43.06;157281.63;5036281;28;20498;-80
2023/10/13 10:15:20;;;;;;;4.70;3.70;;;;;;;23.01;42.86;157285.50;5015625;28;20464;-79
2023/10/13 10:17:47;;;;;;;6.40;3.63;;;;;;;23.01;42.23;157285.50;5015879;28;20807;-81
2023/10/13 10:20:20;;;;;;;4.33;3.37;;;;;;;23.08;42.73;157301.22;5017104;28;20455;-79
2023/10/13 10:22:58;;;;;;;6.93;3.57;;;;;;;23.11;42.12;157310.38;5016135;28;20440;-80
2023/10/13 10:25:34;;;;;;;5.30;3.90;;;;;;;23.14;41.72;157316.91;5015538;28;20452;-80
2023/10/13 10:28:05;;;;;;;4.67;3.23;;;;;;;23.18;42.17;157328.66;5032125;28;20444;-80
2023/10/13 10:30:33;;;;;;;5.37;3.50;;;;;;;23.16;42.45;157323.44;5032910;28;20503;-80
2023/10/13 10:33:01;;;;;;;5.07;3.87;;;;;;;23.27;41.94;157350.88;5014177;28;20472;-81
2023/10/13 10:35:29;;;;;;;4.50;3.37;;;;;;;23.45;40.49;157397.97;5017124;28;20456;-81
2023/10/13 10:38:11;;;;;;;6.00;3.50;;;;;;;23.55;40.57;157424.09;5016288;28;20852;-81
2023/10/13 10:40:51;;;;;;;4.63;3.10;;;;;;;23.58;41.29;157431.97;5013298;28;20480;-81
2023/10/13 10:43:18;;;;;;;5.07;2.93;;;;;;;23.60;40.93;157437.16;5015648;28;20472;-82
2023/10/13 10:45:48;;;;;;;5.20;3.73;;;;;;;23.66;40.79;157452.88;5030364;28;20788;-81
2023/10/13 10:48:18;;;;;;;6.77;2.70;;;;;;;23.69;40.58;157460.72;5014615;28;20782;-81
2023/10/13 10:50:44;;;;;;;7.43;3.60;;;;;;;23.81;40.40;157492.06;5014861;28;20447;-81
2023/10/13 10:53:11;;;;;;;5.37;3.30;;;;;;;23.83;40.73;157497.28;5014182;28;20460;-81
2023/10/13 10:55:39;;;;;;;7.87;3.13;;;;;;;23.89;39.76;157513.00;5014249;28;20825;-81
2023/10/13 10:58:06;;;;;;;6.93;3.40;;;;;;;23.96;39.62;157531.28;5030329;28;20808;-81
2023/10/13 11:00:45;;;;;;;3.67;3.10;;;;;;;24.00;39.92;157541.78;5014550;28;20463;-81
2023/10/13 11:03:13;;;;;;;7.60;3.77;;;;;;;24.07;40.00;157558.75;5031954;28;21036;-81
2023/10/13 11:05:44;;;;;;;4.07;3.40;;;;;;;24.04;40.06;157550.94;5016098;28;20839;-81
2023/10/13 11:08:25;;;;;;;7.57;3.67;;;;;;;24.05;39.39;157554.84;5013986;28;20452;-80
2023/10/13 11:10:53;;;;;;;6.80;3.40;;;;;;;24.01;39.91;157544.34;5015492;28;20465;-81
2023/10/13 11:13:22;;;;;;;5.57;3.40;;;;;;;24.10;39.47;157567.97;5012916;28;21142;-81
2023/10/13 11:15:50;;;;;;;5.70;3.50;;;;;;;24.17;37.87;157585.00;5014473;28;20474;-75
2023/10/13 11:18:20;;;;;;;6.07;3.87;;;;;;;24.20;39.19;157594.09;5018993;28;20534;-84
2023/10/13 11:20:53;;;;;;;4.93;3.10;;;;;;;24.20;39.02;157594.09;5037517;28;20457;-87
2023/10/13 11:23:25;;;;;;;7.40;3.60;;;;;;;24.17;39.05;157586.25;5016387;28;20456;-86
2023/10/13 11:25:59;;;;;;;5.87;3.50;;;;;;;24.18;39.28;157587.56;5014872;28;20526;-84
2023/10/13 11:28:28;;;;;;;6.13;3.63;;;;;;;24.24;38.87;157603.28;5023229;28;20521;-84
2023/10/13 11:30:58;;;;;;;7.30;3.67;;;;;;;24.25;38.22;157604.59;4996002;28;20639;-84
2023/10/13 11:33:27;;;;;;;7.63;4.23;;;;;;;24.22;38.68;157598.06;5016446;28;20439;-85
2023/10/13 11:35:55;;;;;;;8.13;3.90;;;;;;;24.21;38.87;157596.75;5017886;28;20444;-86
2023/10/13 11:38:26;;;;;;;5.20;3.50;;;;;;;24.15;39.67;157579.72;5016345;28;20502;-84
2023/10/13 11:41:15;;;;;;;4.73;3.47;;;;;;;24.10;39.33;157567.97;5014664;28;20488;-85
2023/10/13 11:44:12;;;;;;;4.90;3.73;;;;;;;24.09;38.84;157565.34;4998170;28;20452;-84
2023/10/13 11:46:56;;;;;;;4.80;3.00;;;;;;;24.14;39.17;157578.47;5017717;28;20455;-85
2023/10/13 11:49:34;;;;;;;8.10;3.57;;;;;;;24.18;38.87;157588.91;5033181;28;20470;-84
2023/10/13 11:52:15;;;;;;;8.10;4.00;;;;;;;24.18;39.17;157587.56;5024173;28;20467;-87
2023/10/13 11:54:42;;;;;;;4.60;3.10;;;;;;;24.19;39.01;157590.22;5020916;28;20464;-84
2023/10/13 11:57:10;;;;;;;5.20;4.00;;;;;;;24.21;39.48;157595.44;5023434;28;20448;-85
2023/10/13 11:59:44;;;;;;;5.20;2.80;;;;;;;24.28;39.30;157612.44;5017677;28;20482;-88
2023/10/13 12:04:57;;;;;;;6.93;2.57;;;;;;;24.28;38.80;157613.72;5030796;28;20451;-86
2023/10/13 12:07:27;;;;;;;5.20;3.57;;;;;;;24.37;38.37;157635.97;5001337;28;20449;-86
2023/10/13 12:10:15;;;;;;;7.87;3.40;;;;;;;24.38;38.03;157638.59;5014847;28;20449;-74
2023/10/13 12:12:43;;;;;;;4.00;2.87;;;;;;;24.33;38.92;157625.53;5016880;28;20448;-72
2023/10/13 12:15:24;;;;;;;7.50;3.60;;;;;;;24.33;37.98;157626.78;5018633;28;20460;-72
2023/10/13 12:17:51;;;;;;;5.47;3.30;;;;;;;24.34;38.76;157629.44;5018680;28;20974;-72
2023/10/13 12:20:32;;;;;;;6.80;3.30;;;;;;;24.31;37.74;157620.25;5017157;28;20502;-72
2023/10/13 12:23:09;;;;;;;8.27;3.43;;;;;;;24.29;38.49;157616.34;5015838;28;20448;-72
2023/10/13 12:25:54;;;;;;;7.93;2.57;;;;;;;24.31;38.67;157620.25;5034586;28;20468;-73
2023/10/13 12:28:26;;;;;;;4.87;3.47;;;;;;;24.30;37.89;157617.66;5017512;28;20537;-72
2023/10/13 12:30:53;;;;;;;5.33;3.40;;;;;;;24.36;38.35;157634.66;5022127;28;20452;-72
2023/10/13 12:33:26;;;;;;;7.03;3.80;;;;;;;24.40;37.98;157645.13;5013904;28;20450;-72
2023/10/13 12:36:06;;;;;;;5.10;3.73;;;;;;;24.42;38.22;157650.34;5014102;28;20515;-73
2023/10/13 12:48:55;;;;;;;8.60;3.37;;;;;;;24.41;38.07;157646.47;5013175;28;20455;-73
2023/10/13 12:49:57;;;;;;;5.57;3.43;;;;;;;24.39;38.47;157641.19;5017992;28;20449;-72
2023/10/13 12:52:26;;;;;;;5.50;3.70;;;;;;;24.51;37.78;157673.94;5017551;28;20813;-72
2023/10/13 12:55:05;;;;;;;7.20;3.33;;;;;;;24.62;39.06;157701.38;5015674;28;21049;-72
2023/10/13 12:57:33;;;;;;;6.70;3.00;;;;;;;24.61;38.87;157700.06;5013850;28;20791;-73
2023/10/13 13:00:16;;;;;;;4.23;3.40;;;;;;;24.50;39.21;157671.28;5015214;28;20855;-72
2023/10/13 13:02:42;;;;;;;8.30;3.30;;;;;;;24.48;39.60;157664.75;5031783;28;20766;-73
2023/10/13 13:05:11;;;;;;;5.43;3.07;;;;;;;24.55;38.73;157683.03;5016232;28;20819;-73
2023/10/13 13:07:46;;;;;;;4.20;3.23;;;;;;;24.65;38.51;157709.19;5015844;28;20561;-73
2023/10/13 13:10:14;;;;;;;7.47;3.60;;;;;;;24.68;38.51;157717.06;5018399;28;21071;-72
2023/10/13 13:12:40;;;;;;;6.50;2.93;;;;;;;24.68;38.74;157717.06;5015482;28;20452;-72
2023/10/13 13:15:09;;;;;;;4.70;3.10;;;;;;;24.65;37.90;157709.19;5017158;28;21278;-72
2023/10/13 13:17:36;;;;;;;4.73;3.70;;;;;;;24.66;38.63;157713.16;5018748;28;20539;-72
2023/10/13 13:20:10;;;;;;;5.53;3.47;;;;;;;24.74;38.09;157732.75;5001568;28;20473;-72
2023/10/13 13:22:37;;;;;;;5.67;3.30;;;;;;;24.73;37.69;157731.44;5019792;28;20450;-72
2023/10/13 13:25:07;;;;;;;4.03;3.30;;;;;;;24.78;37.38;157744.56;5031969;28;20500;-72
2023/10/13 13:27:34;;;;;;;3.47;3.00;;;;;;;24.85;36.55;157761.59;5017688;28;20440;-72
2023/10/13 13:30:01;;;;;;;6.37;3.23;;;;;;;24.86;36.31;157764.19;5016764;28;21068;-71
2023/10/13 13:32:29;;;;;;;6.20;3.00;;;;;;;24.80;35.76;157748.53;5015948;28;20448;-72
2023/10/13 13:35:02;;;;;;;3.77;3.17;;;;;;;24.83;34.82;157757.66;5019135;28;20455;-72
2023/10/13 13:37:29;;;;;;;4.10;3.17;;;;;;;24.90;35.60;157773.38;5015433;28;20562;-72